Time;durP1;ratioP1;P1;durP2;ratioP2;P2;SDS_P1;SDS_P2;PMS_P1;PMS_P2;Temp;Humidity;BMP_temperature;BMP_pressure;BME280_temperature;BME280_humidity;BME280_pressure;Samples;Min_cycle;Max_cycle;Signal;HPM_P1;HPM_P2
2021/01/04 00:02:20;;;;;;;8.80;4.50;;;;;;;;;;5078264;28;20192;-73
2021/01/04 00:04:52;;;;;;;5.90;4.60;;;;;;;;;;5071235;28;20183;-75
2021/01/04 00:07:21;;;;;;;7.93;3.95;;;;;;;;;;5088867;28;20243;-74
2021/01/04 00:10:15;;;;;;;6.00;4.20;;;;;;;;;;5090367;28;20191;-72
2021/01/04 00:12:54;;;;;;;9.05;4.32;;;;;;;;;;5085469;28;20227;-75
2021/01/04 00:15:40;;;;;;;7.57;4.50;;;;;;;;;;5085650;28;20183;-75
2021/01/04 00:18:27;;;;;;;6.18;3.80;;;;;;;;;;5072721;28;20192;-74
2021/01/04 00:20:59;;;;;;;6.53;3.80;;;;;;;;;;5080169;28;20203;-75
2021/01/04 00:23:25;;;;;;;5.88;4.07;;;;;;;;;;5082182;28;20178;-75
2021/01/04 00:25:57;;;;;;;5.38;4.03;;;;;;;;;;5081749;28;20209;-74
2021/01/04 00:28:26;;;;;;;5.20;4.15;;;;;;;;;;5073002;28;20585;-73
2021/01/04 00:30:58;;;;;;;6.43;3.80;;;;;;;;;;5074940;28;20208;-74
2021/01/04 00:33:26;;;;;;;6.60;3.70;;;;;;;;;;5068840;28;20208;-75
2021/01/04 00:35:54;;;;;;;6.97;3.60;;;;;;;;;;5074305;28;20240;-75
2021/01/04 00:38:29;;;;;;;4.90;3.72;;;;;;;;;;5073422;28;20915;-74
2021/01/04 00:41:07;;;;;;;9.00;3.42;;;;;;;;;;5075378;28;20210;-74
2021/01/04 00:43:33;;;;;;;6.20;3.80;;;;;;;;;;5092632;28;20561;-77
2021/01/04 00:46:00;;;;;;;5.90;4.05;;;;;;;;;;5094339;28;20195;-73
2021/01/04 00:48:32;;;;;;;6.43;3.70;;;;;;;;;;5088448;28;20179;-75
2021/01/04 00:50:58;;;;;;;5.25;3.20;;;;;;;;;;5090191;28;20199;-76
2021/01/04 00:53:36;;;;;;;5.68;3.70;;;;;;;;;;5093260;28;20214;-74
2021/01/04 00:56:25;;;;;;;5.82;4.07;;;;;;;;;;5092409;28;20179;-74
2021/01/04 00:59:06;;;;;;;4.07;3.05;;;;;;;;;;5081764;28;20182;-75
2021/01/04 01:01:48;;;;;;;5.72;3.50;;;;;;;;;;5089779;28;20211;-73
2021/01/04 01:04:14;;;;;;;6.78;3.78;;;;;;;;;;5072524;28;20184;-76
2021/01/04 01:06:49;;;;;;;5.85;3.22;;;;;;;;;;5089929;28;20198;-76
2021/01/04 01:09:15;;;;;;;5.38;3.20;;;;;;;;;;5092587;28;20183;-76
2021/01/04 01:11:50;;;;;;;7.90;3.70;;;;;;;;;;5083362;28;20300;-76
2021/01/04 01:14:20;;;;;;;4.13;3.28;;;;;;;;;;5084303;28;20198;-73
2021/01/04 01:17:05;;;;;;;3.83;3.20;;;;;;;;;;5091588;28;20705;-74
2021/01/04 01:19:46;;;;;;;5.32;3.60;;;;;;;;;;5087606;28;20184;-75
2021/01/04 01:22:15;;;;;;;4.43;2.75;;;;;;;;;;5075353;28;20178;-75
2021/01/04 01:24:41;;;;;;;5.53;2.85;;;;;;;;;;5085314;28;20192;-73
2021/01/04 01:27:26;;;;;;;5.80;3.17;;;;;;;;;;5072483;28;20184;-75
2021/01/04 01:30:07;;;;;;;3.72;2.78;;;;;;;;;;5089847;28;20184;-76
2021/01/04 01:32:33;;;;;;;5.40;3.05;;;;;;;;;;5092409;28;20187;-75
2021/01/04 01:34:59;;;;;;;6.68;3.10;;;;;;;;;;5079425;28;20207;-74
2021/01/04 01:37:25;;;;;;;5.55;3.20;;;;;;;;;;5084413;28;20175;-74
2021/01/04 01:40:03;;;;;;;4.10;2.80;;;;;;;;;;5084668;28;20183;-75
2021/01/04 01:42:45;;;;;;;5.45;2.90;;;;;;;;;;5086694;28;20175;-74
2021/01/04 01:45:14;;;;;;;4.35;2.53;;;;;;;;;;5076275;28;20180;-74
2021/01/04 01:47:43;;;;;;;8.18;2.90;;;;;;;;;;5074869;28;20229;-74
2021/01/04 01:50:33;;;;;;;3.83;3.17;;;;;;;;;;5075374;28;20196;-73
2021/01/04 01:52:59;;;;;;;4.40;2.85;;;;;;;;;;5077663;28;20637;-74
2021/01/04 01:55:25;;;;;;;3.83;2.50;;;;;;;;;;5083643;28;20180;-75
2021/01/04 01:57:54;;;;;;;3.10;2.33;;;;;;;;;;5095559;28;20186;-75
2021/01/04 02:00:30;;;;;;;3.65;2.15;;;;;;;;;;5095399;28;20747;-77
2021/01/04 02:03:06;;;;;;;2.95;2.00;;;;;;;;;;5095847;28;20182;-76
2021/01/04 02:05:53;;;;;;;4.55;2.45;;;;;;;;;;5095074;28;20179;-75
2021/01/04 02:08:27;;;;;;;3.30;2.60;;;;;;;;;;5095536;28;20201;-75
2021/01/04 02:10:56;;;;;;;3.88;2.30;;;;;;;;;;5095040;28;20194;-74
2021/01/04 02:13:22;;;;;;;6.35;2.33;;;;;;;;;;5083889;28;20657;-75
2021/01/04 02:15:54;;;;;;;3.72;2.33;;;;;;;;;;5089319;28;20599;-73
2021/01/04 02:18:35;;;;;;;4.93;2.20;;;;;;;;;;5082508;28;20172;-74
2021/01/04 02:21:10;;;;;;;3.10;2.40;;;;;;;;;;5088845;28;20199;-73
2021/01/04 02:23:36;;;;;;;4.05;2.20;;;;;;;;;;5093940;28;20591;-74
2021/01/04 02:26:20;;;;;;;4.50;2.13;;;;;;;;;;5094393;28;20644;-73
2021/01/04 02:29:03;;;;;;;3.50;2.50;;;;;;;;;;5085377;28;20649;-75
2021/01/04 02:31:30;;;;;;;5.65;2.17;;;;;;;;;;5094297;28;20226;-74
2021/01/04 02:33:57;;;;;;;3.85;2.60;;;;;;;;;;5082957;28;20196;-73
2021/01/04 02:36:25;;;;;;;4.10;1.98;;;;;;;;;;5084431;28;20202;-73
2021/01/04 02:39:06;;;;;;;2.88;2.05;;;;;;;;;;5094338;28;20191;-73
2021/01/04 02:41:58;;;;;;;2.78;2.00;;;;;;;;;;5093397;28;20199;-73
2021/01/04 02:44:27;;;;;;;5.95;2.20;;;;;;;;;;5092815;28;20194;-75
2021/01/04 02:47:14;;;;;;;3.35;2.20;;;;;;;;;;5094380;28;20194;-75
2021/01/04 02:50:02;;;;;;;3.35;2.00;;;;;;;;;;5086111;28;20617;-72
2021/01/04 02:52:37;;;;;;;3.17;2.20;;;;;;;;;;5074295;28;20180;-76
2021/01/04 02:55:07;;;;;;;2.75;2.00;;;;;;;;;;5080788;28;20239;-74
2021/01/04 02:57:55;;;;;;;2.60;1.65;;;;;;;;;;5074251;28;20188;-76
2021/01/04 03:00:24;;;;;;;5.10;2.15;;;;;;;;;;5086348;28;20249;-76
2021/01/04 03:02:55;;;;;;;2.63;2.10;;;;;;;;;;5093068;28;20183;-74
2021/01/04 03:05:23;;;;;;;4.15;2.22;;;;;;;;;;5077445;28;20195;-76
2021/01/04 03:07:51;;;;;;;3.47;2.08;;;;;;;;;;5090998;28;20284;-73
2021/01/04 03:10:19;;;;;;;4.55;2.00;;;;;;;;;;5105279;28;20294;-74
2021/01/04 03:12:51;;;;;;;3.15;1.90;;;;;;;;;;5092650;28;20236;-77
2021/01/04 03:15:27;;;;;;;4.07;2.20;;;;;;;;;;5093212;28;20186;-77
2021/01/04 03:18:11;;;;;;;5.15;1.90;;;;;;;;;;5094391;28;20180;-73
2021/01/04 03:20:37;;;;;;;3.55;1.80;;;;;;;;;;5088873;28;20232;-74
2021/01/04 03:23:03;;;;;;;2.88;1.75;;;;;;;;;;5094152;28;20168;-76
2021/01/04 03:25:34;;;;;;;2.30;1.70;;;;;;;;;;5093157;28;20184;-76
2021/01/04 03:28:01;;;;;;;3.58;1.90;;;;;;;;;;5091635;28;20224;-74
2021/01/04 03:30:28;;;;;;;3.47;1.58;;;;;;;;;;5084933;28;20206;-76
2021/01/04 03:32:54;;;;;;;4.07;2.10;;;;;;;;;;5091382;28;20216;-74
2021/01/04 03:35:21;;;;;;;3.20;1.80;;;;;;;;;;5093390;28;20199;-73
2021/01/04 03:37:47;;;;;;;2.92;1.58;;;;;;;;;;5093515;28;20540;-74
2021/01/04 03:40:13;;;;;;;3.00;1.75;;;;;;;;;;5090189;28;20196;-76
2021/01/04 03:42:39;;;;;;;2.67;1.83;;;;;;;;;;5093747;28;20259;-75
2021/01/04 03:45:05;;;;;;;4.05;2.08;;;;;;;;;;5093224;28;20218;-72
2021/01/04 03:47:31;;;;;;;4.07;1.70;;;;;;;;;;5073882;28;20180;-73
2021/01/04 03:49:57;;;;;;;2.28;1.60;;;;;;;;;;5083083;28;20182;-75
2021/01/04 03:52:23;;;;;;;3.45;1.98;;;;;;;;;;5092082;28;20187;-75
2021/01/04 03:54:49;;;;;;;4.90;1.63;;;;;;;;;;5092720;28;20213;-75
2021/01/04 03:57:15;;;;;;;3.22;1.70;;;;;;;;;;5074702;28;20184;-74
2021/01/04 03:59:42;;;;;;;3.13;1.90;;;;;;;;;;5073957;28;20181;-75
2021/01/04 04:02:08;;;;;;;3.05;1.52;;;;;;;;;;5086215;28;20199;-73
2021/01/04 04:04:34;;;;;;;2.60;1.60;;;;;;;;;;5085826;28;20180;-73
2021/01/04 04:07:01;;;;;;;2.80;1.48;;;;;;;;;;5093017;28;20191;-76
2021/01/04 04:09:27;;;;;;;2.70;1.60;;;;;;;;;;5093189;28;20646;-74
2021/01/04 04:11:53;;;;;;;4.20;1.67;;;;;;;;;;5087118;28;20291;-74
2021/01/04 04:14:19;;;;;;;3.45;2.03;;;;;;;;;;5072762;28;20192;-74
2021/01/04 04:16:47;;;;;;;4.13;1.75;;;;;;;;;;5075795;28;20191;-75
2021/01/04 04:19:13;;;;;;;3.25;1.35;;;;;;;;;;5086166;28;20228;-75
2021/01/04 04:21:39;;;;;;;4.05;2.10;;;;;;;;;;5081974;28;20206;-77
2021/01/04 04:24:06;;;;;;;4.45;1.98;;;;;;;;;;5090552;28;20175;-74
2021/01/04 04:26:32;;;;;;;3.20;1.92;;;;;;;;;;5092480;28;20191;-76
2021/01/04 04:28:58;;;;;;;3.35;1.58;;;;;;;;;;5093985;28;20198;-74
2021/01/04 04:31:24;;;;;;;3.15;1.50;;;;;;;;;;5084421;28;20223;-77
2021/01/04 04:33:50;;;;;;;3.75;1.30;;;;;;;;;;5092112;28;21013;-73
2021/01/04 04:36:30;;;;;;;3.20;1.52;;;;;;;;;;5089700;28;20259;-76
2021/01/04 04:38:56;;;;;;;3.97;1.50;;;;;;;;;;5072953;28;20179;-75
2021/01/04 04:41:22;;;;;;;6.50;1.70;;;;;;;;;;5077489;28;20270;-76
2021/01/04 04:43:50;;;;;;;3.03;1.73;;;;;;;;;;5092732;28;20321;-74
2021/01/04 04:46:25;;;;;;;4.63;1.60;;;;;;;;;;5084830;28;20262;-76
2021/01/04 04:48:55;;;;;;;3.13;1.60;;;;;;;;;;5092620;28;20179;-75
2021/01/04 04:51:28;;;;;;;2.90;1.40;;;;;;;;;;5093496;28;20223;-74
2021/01/04 04:54:17;;;;;;;2.83;1.60;;;;;;;;;;5092138;28;20578;-76
2021/01/04 04:56:46;;;;;;;3.67;1.63;;;;;;;;;;5080348;28;20184;-77
2021/01/04 04:59:31;;;;;;;3.30;1.58;;;;;;;;;;5072441;28;20183;-73
2021/01/04 05:01:59;;;;;;;3.95;1.60;;;;;;;;;;5083349;28;20188;-77
2021/01/04 05:04:41;;;;;;;5.30;2.22;;;;;;;;;;5087329;28;20195;-74
2021/01/04 05:07:25;;;;;;;3.72;1.70;;;;;;;;;;5072322;28;20192;-74
2021/01/04 05:09:54;;;;;;;3.95;1.40;;;;;;;;;;5084786;28;20244;-76
2021/01/04 05:12:25;;;;;;;2.60;1.90;;;;;;;;;;5084150;28;20181;-76
2021/01/04 05:14:53;;;;;;;3.22;1.88;;;;;;;;;;5072490;28;20214;-77
2021/01/04 05:17:22;;;;;;;3.05;1.65;;;;;;;;;;5086013;28;20232;-76
2021/01/04 05:20:07;;;;;;;2.25;1.60;;;;;;;;;;5084496;28;20181;-74
2021/01/04 05:22:52;;;;;;;1.95;1.40;;;;;;;;;;5092097;28;20271;-73
2021/01/04 05:25:20;;;;;;;5.05;1.67;;;;;;;;;;5095976;28;20179;-76
2021/01/04 05:27:56;;;;;;;3.50;1.90;;;;;;;;;;5077852;28;20233;-74
2021/01/04 05:30:34;;;;;;;4.20;2.15;;;;;;;;;;5081632;28;20652;-74
2021/01/04 05:33:13;;;;;;;2.45;1.70;;;;;;;;;;5084960;28;20262;-75
2021/01/04 05:35:40;;;;;;;3.33;2.00;;;;;;;;;;5090312;28;20224;-72
2021/01/04 05:38:35;;;;;;;5.25;1.85;;;;;;;;;;5085439;28;20567;-73
2021/01/04 05:41:33;;;;;;;3.10;2.22;;;;;;;;;;5087967;28;20565;-75
2021/01/04 05:44:18;;;;;;;4.57;1.95;;;;;;;;;;5088894;28;20527;-73
2021/01/04 05:46:54;;;;;;;3.00;1.80;;;;;;;;;;5095478;28;20190;-75
2021/01/04 05:49:23;;;;;;;4.15;2.10;;;;;;;;;;5092254;28;20172;-74
2021/01/04 05:51:50;;;;;;;4.07;2.10;;;;;;;;;;5095585;28;20195;-75
2021/01/04 05:54:23;;;;;;;2.97;1.98;;;;;;;;;;5095101;28;20206;-72
2021/01/04 05:56:49;;;;;;;3.60;2.08;;;;;;;;;;5077185;28;20570;-74
2021/01/04 05:59:16;;;;;;;3.28;1.90;;;;;;;;;;5085137;28;20178;-74
2021/01/04 06:01:44;;;;;;;2.30;1.88;;;;;;;;;;5079718;28;20210;-73
2021/01/04 06:04:27;;;;;;;6.13;2.20;;;;;;;;;;5094943;28;20240;-75
2021/01/04 06:06:57;;;;;;;2.63;2.22;;;;;;;;;;5095188;28;20578;-73
2021/01/04 06:09:24;;;;;;;3.53;2.40;;;;;;;;;;5092074;28;20178;-76
2021/01/04 06:11:57;;;;;;;5.43;2.92;;;;;;;;;;5077986;28;20238;-77
2021/01/04 06:14:32;;;;;;;2.63;2.38;;;;;;;;;;5078823;28;20204;-76
2021/01/04 06:17:06;;;;;;;3.45;2.60;;;;;;;;;;5082955;28;20186;-73
2021/01/04 06:19:37;;;;;;;3.05;2.10;;;;;;;;;;5080528;28;20175;-74
2021/01/04 06:22:10;;;;;;;3.05;2.20;;;;;;;;;;5092558;28;20187;-77
2021/01/04 06:24:37;;;;;;;2.47;1.98;;;;;;;;;;5093478;28;20645;-75
2021/01/04 06:27:21;;;;;;;4.05;2.10;;;;;;;;;;5093148;28;20187;-74
2021/01/04 06:29:49;;;;;;;2.65;2.30;;;;;;;;;;5093012;28;20179;-74
2021/01/04 06:32:22;;;;;;;2.50;2.30;;;;;;;;;;5083521;28;20541;-76
2021/01/04 06:35:06;;;;;;;2.70;2.50;;;;;;;;;;5089066;28;20203;-74
2021/01/04 06:37:33;;;;;;;3.20;2.60;;;;;;;;;;5095206;28;20176;-75
2021/01/04 06:40:19;;;;;;;5.05;2.67;;;;;;;;;;5094990;28;20259;-71
2021/01/04 06:42:45;;;;;;;3.67;2.45;;;;;;;;;;5093214;28;20237;-75
2021/01/04 06:45:14;;;;;;;3.53;2.65;;;;;;;;;;5089870;28;20190;-75
2021/01/04 06:48:06;;;;;;;4.20;2.45;;;;;;;;;;5093397;28;20587;-75
2021/01/04 06:50:36;;;;;;;3.60;2.30;;;;;;;;;;5081142;28;20219;-73
2021/01/04 06:53:25;;;;;;;3.42;2.40;;;;;;;;;;5079305;28;20210;-71
2021/01/04 06:55:57;;;;;;;2.60;2.17;;;;;;;;;;5079538;28;20172;-75
2021/01/04 06:58:26;;;;;;;2.97;2.30;;;;;;;;;;5084235;28;20177;-74
2021/01/04 07:00:55;;;;;;;3.88;2.30;;;;;;;;;;5085672;28;20245;-76
2021/01/04 07:03:28;;;;;;;3.00;2.45;;;;;;;;;;5089265;28;20183;-75
2021/01/04 07:05:54;;;;;;;2.97;2.67;;;;;;;;;;5089233;28;20521;-74
2021/01/04 07:08:40;;;;;;;3.50;2.70;;;;;;;;;;5076103;28;20218;-73
2021/01/04 07:11:25;;;;;;;3.60;2.60;;;;;;;;;;5103162;28;20222;-74
2021/01/04 07:14:04;;;;;;;3.83;3.03;;;;;;;;;;5093666;28;20586;-74
2021/01/04 07:17:06;;;;;;;3.95;3.30;;;;;;;;;;5089696;28;20226;-72
2021/01/04 07:19:51;;;;;;;4.35;2.58;;;;;;;;;;5091744;28;20208;-75
2021/01/04 07:22:24;;;;;;;2.53;2.17;;;;;;;;;;5081192;28;20242;-73
2021/01/04 07:24:55;;;;;;;3.40;2.72;;;;;;;;;;5078623;28;20187;-73
2021/01/04 07:27:40;;;;;;;3.20;2.78;;;;;;;;;;5080417;28;20179;-73
2021/01/04 07:30:11;;;;;;;3.10;2.80;;;;;;;;;;5077603;28;20200;-73
2021/01/04 07:32:37;;;;;;;3.25;2.85;;;;;;;;;;5090732;28;20186;-73
2021/01/04 07:35:07;;;;;;;2.80;2.50;;;;;;;;;;5092704;28;20744;-73
2021/01/04 07:37:52;;;;;;;3.10;2.80;;;;;;;;;;5093376;28;20211;-71
2021/01/04 07:40:27;;;;;;;3.50;2.55;;;;;;;;;;5083625;28;20192;-73
2021/01/04 07:42:53;;;;;;;3.33;2.80;;;;;;;;;;5074585;28;20183;-75
2021/01/04 07:45:19;;;;;;;4.18;2.85;;;;;;;;;;5071611;28;20945;-73
2021/01/04 07:47:54;;;;;;;3.67;2.75;;;;;;;;;;5073191;28;20184;-74
2021/01/04 07:50:40;;;;;;;3.22;2.80;;;;;;;;;;5081976;28;20687;-75
2021/01/04 07:53:36;;;;;;;2.85;2.53;;;;;;;;;;5078414;28;20183;-75
2021/01/04 07:56:21;;;;;;;3.30;2.50;;;;;;;;;;5072906;28;20172;-76
2021/01/04 07:58:50;;;;;;;8.02;5.32;;;;;;;;;;5086927;28;20171;-76
2021/01/04 08:01:34;;;;;;;6.90;6.30;;;;;;;;;;5089989;28;20233;-75
2021/01/04 08:04:18;;;;;;;10.20;9.10;;;;;;;;;;5083711;28;20183;-75
2021/01/04 08:06:54;;;;;;;9.88;7.15;;;;;;;;;;5088117;28;20648;-74
2021/01/04 08:09:38;;;;;;;15.20;11.35;;;;;;;;;;5090742;28;20596;-75
2021/01/04 08:12:17;;;;;;;9.40;8.60;;;;;;;;;;5073881;28;20226;-74
2021/01/04 08:15:04;;;;;;;7.10;6.40;;;;;;;;;;5071285;28;20211;-73
2021/01/04 08:17:43;;;;;;;8.70;7.80;;;;;;;;;;5082819;28;20262;-73
2021/01/04 08:20:09;;;;;;;13.60;12.20;;;;;;;;;;5080490;28;20214;-75
2021/01/04 08:22:35;;;;;;;5.38;4.88;;;;;;;;;;5075022;28;20180;-76
2021/01/04 08:25:09;;;;;;;19.08;15.45;;;;;;;;;;5076953;28;20188;-76
2021/01/04 08:27:41;;;;;;;12.57;11.45;;;;;;;;;;5070360;28;20226;-75
2021/01/04 08:30:19;;;;;;;7.90;6.97;;;;;;;;;;5079396;28;20202;-75
2021/01/04 08:33:08;;;;;;;4.15;3.70;;;;;;;;;;5080361;28;20232;-74
2021/01/04 08:35:41;;;;;;;3.25;2.95;;;;;;;;;;5080575;28;20194;-75
2021/01/04 08:38:26;;;;;;;3.45;2.90;;;;;;;;;;5089966;28;20184;-73
2021/01/04 08:41:09;;;;;;;3.92;3.63;;;;;;;;;;5087296;28;20255;-75
2021/01/04 08:43:37;;;;;;;3.67;3.00;;;;;;;;;;5080592;28;20202;-75
2021/01/04 08:46:22;;;;;;;3.70;3.28;;;;;;;;;;5068859;28;20255;-72
2021/01/04 08:48:49;;;;;;;3.75;3.15;;;;;;;;;;5079365;28;20539;-76
2021/01/04 08:51:34;;;;;;;5.10;3.00;;;;;;;;;;5088803;28;20210;-74
2021/01/04 08:54:03;;;;;;;3.55;3.25;;;;;;;;;;5088689;28;20203;-77
2021/01/04 08:56:37;;;;;;;6.40;3.22;;;;;;;;;;5088690;28;20190;-74
2021/01/04 08:59:23;;;;;;;5.28;2.85;;;;;;;;;;5091805;28;20178;-74
2021/01/04 09:01:54;;;;;;;2.72;2.40;;;;;;;;;;5092644;28;20202;-74
2021/01/04 09:04:26;;;;;;;3.67;3.00;;;;;;;;;;5092339;28;20212;-73
2021/01/04 09:07:21;;;;;;;3.60;3.30;;;;;;;;;;5080096;28;20199;-73
2021/01/04 09:09:52;;;;;;;3.65;3.15;;;;;;;;;;5079962;28;20548;-72
2021/01/04 09:12:21;;;;;;;3.00;2.70;;;;;;;;;;5086769;28;20223;-77
2021/01/04 09:14:49;;;;;;;6.68;3.10;;;;;;;;;;5088665;28;20215;-77
2021/01/04 09:17:22;;;;;;;3.58;3.28;;;;;;;;;;5079702;28;20541;-74
2021/01/04 09:19:51;;;;;;;3.25;2.63;;;;;;;;;;5089493;28;20199;-76
2021/01/04 09:22:22;;;;;;;3.25;2.80;;;;;;;;;;5092352;28;20218;-77
2021/01/04 09:24:48;;;;;;;3.47;3.15;;;;;;;;;;5078553;28;20188;-74
2021/01/04 09:27:17;;;;;;;3.13;2.83;;;;;;;;;;5072097;28;20188;-74
2021/01/04 09:29:46;;;;;;;3.92;2.92;;;;;;;;;;5088629;28;20179;-74
2021/01/04 09:32:14;;;;;;;3.90;2.83;;;;;;;;;;5082096;28;20518;-73
2021/01/04 09:34:40;;;;;;;4.80;3.10;;;;;;;;;;5091369;28;20199;-72
2021/01/04 09:37:07;;;;;;;3.65;2.70;;;;;;;;;;5091596;28;20171;-73
2021/01/04 09:39:35;;;;;;;3.58;2.58;;;;;;;;;;5089491;28;20535;-75
2021/01/04 09:42:02;;;;;;;8.40;7.63;;;;;;;;;;5085417;28;20195;-74
2021/01/04 09:44:28;;;;;;;5.65;2.80;;;;;;;;;;5088005;28;20270;-75
2021/01/04 09:46:54;;;;;;;4.13;2.53;;;;;;;;;;5087169;28;20552;-77
2021/01/04 09:49:24;;;;;;;4.97;3.13;;;;;;;;;;5090509;28;20183;-75
2021/01/04 09:51:58;;;;;;;4.20;2.17;;;;;;;;;;5085346;28;20203;-77
2021/01/04 09:54:29;;;;;;;3.42;2.50;;;;;;;;;;5088442;28;20210;-75
2021/01/04 09:57:00;;;;;;;3.25;2.95;;;;;;;;;;5091340;28;20253;-77
2021/01/04 09:59:26;;;;;;;3.70;2.95;;;;;;;;;;5091672;28;20202;-76
2021/01/04 10:01:57;;;;;;;4.30;3.10;;;;;;;;;;5091518;28;20210;-76
2021/01/04 10:04:33;;;;;;;3.30;3.00;;;;;;;;;;5090993;28;20175;-75
2021/01/04 10:07:04;;;;;;;3.28;2.45;;;;;;;;;;5087582;28;20230;-74
2021/01/04 10:09:31;;;;;;;2.75;2.28;;;;;;;;;;5090248;28;20614;-76
2021/01/04 10:12:00;;;;;;;6.05;3.10;;;;;;;;;;5091409;28;20557;-72
2021/01/04 10:14:26;;;;;;;2.92;2.30;;;;;;;;;;5091363;28;20324;-75
2021/01/04 10:16:54;;;;;;;3.15;2.85;;;;;;;;;;5091039;28;20253;-72
2021/01/04 10:19:23;;;;;;;3.15;2.78;;;;;;;;;;5091494;28;20183;-73
2021/01/04 10:21:52;;;;;;;3.65;2.90;;;;;;;;;;5075506;28;20208;-73
2021/01/04 10:24:38;;;;;;;5.32;2.45;;;;;;;;;;5076159;28;20190;-75
2021/01/04 10:27:05;;;;;;;2.80;2.15;;;;;;;;;;5080132;28;20248;-74
2021/01/04 10:29:32;;;;;;;3.10;2.25;;;;;;;;;;5078053;28;20210;-73
2021/01/04 10:32:10;;;;;;;3.10;2.40;;;;;;;;;;5082531;28;20234;-73
2021/01/04 10:34:41;;;;;;;2.75;2.55;;;;;;;;;;5081201;28;20286;-75
2021/01/04 10:37:15;;;;;;;2.65;2.30;;;;;;;;;;5078969;28;20187;-73
2021/01/04 10:39:41;;;;;;;3.08;2.60;;;;;;;;;;5090724;28;20183;-72
2021/01/04 10:42:09;;;;;;;3.78;2.42;;;;;;;;;;5091591;28;20597;-73
2021/01/04 10:44:35;;;;;;;2.83;2.50;;;;;;;;;;5082871;28;20188;-74
2021/01/04 10:47:01;;;;;;;3.05;2.75;;;;;;;;;;5089620;28;20217;-75
2021/01/04 10:49:28;;;;;;;3.20;2.25;;;;;;;;;;5084843;28;20211;-74
2021/01/04 10:51:55;;;;;;;2.72;2.10;;;;;;;;;;5088978;28;20209;-74
2021/01/04 10:54:41;;;;;;;7.45;2.58;;;;;;;;;;5089142;28;20199;-72
2021/01/04 10:57:20;;;;;;;2.78;2.50;;;;;;;;;;5090762;28;20175;-73
2021/01/04 10:59:49;;;;;;;4.35;2.70;;;;;;;;;;5090478;28;20228;-74
2021/01/04 11:02:16;;;;;;;2.67;2.17;;;;;;;;;;5090544;28;20713;-73
2021/01/04 11:04:50;;;;;;;2.90;2.30;;;;;;;;;;5083934;28;20599;-77
2021/01/04 11:07:19;;;;;;;2.80;2.13;;;;;;;;;;5082254;28;20274;-76
2021/01/04 11:09:46;;;;;;;3.40;2.35;;;;;;;;;;5089572;28;20231;-74
2021/01/04 11:12:21;;;;;;;5.45;2.80;;;;;;;;;;5085423;28;20187;-75
2021/01/04 11:14:53;;;;;;;4.85;3.03;;;;;;;;;;5079347;28;20309;-73
2021/01/04 11:17:28;;;;;;;3.55;3.22;;;;;;;;;;5083640;28;20199;-74
2021/01/04 11:20:03;;;;;;;3.50;2.65;;;;;;;;;;5089701;28;20213;-76
2021/01/04 11:22:29;;;;;;;4.60;2.20;;;;;;;;;;5082666;28;20170;-74
2021/01/04 11:24:56;;;;;;;2.70;2.40;;;;;;;;;;5088392;28;20187;-75
2021/01/04 11:27:22;;;;;;;2.67;2.20;;;;;;;;;;5090120;28;20175;-75
2021/01/04 11:29:49;;;;;;;2.63;2.28;;;;;;;;;;5089901;28;20179;-74
2021/01/04 11:32:16;;;;;;;2.30;1.90;;;;;;;;;;5088964;28;20231;-75
2021/01/04 11:34:43;;;;;;;2.78;1.80;;;;;;;;;;5089275;28;20207;-73
2021/01/04 11:37:09;;;;;;;2.65;2.00;;;;;;;;;;5089426;28;20258;-75
2021/01/04 11:39:36;;;;;;;2.22;1.70;;;;;;;;;;5089629;28;20228;-75
2021/01/04 11:42:03;;;;;;;2.25;1.80;;;;;;;;;;5083158;28;20272;-75
2021/01/04 11:44:29;;;;;;;2.13;1.70;;;;;;;;;;5088079;28;20206;-74
2021/01/04 11:46:56;;;;;;;4.05;2.00;;;;;;;;;;5079984;28;20668;-75
2021/01/04 11:49:22;;;;;;;2.63;2.17;;;;;;;;;;5069520;28;20552;-72
2021/01/04 11:51:52;;;;;;;2.65;1.70;;;;;;;;;;5078198;28;20219;-74
2021/01/04 11:54:18;;;;;;;3.17;1.90;;;;;;;;;;5083184;28;20874;-73
2021/01/04 11:56:44;;;;;;;2.58;1.98;;;;;;;;;;5076270;28;20180;-77
2021/01/04 11:59:10;;;;;;;3.40;1.65;;;;;;;;;;5069195;28;20708;-73
2021/01/04 12:01:37;;;;;;;3.25;1.70;;;;;;;;;;5073527;28;20204;-74
2021/01/04 12:04:04;;;;;;;3.10;2.00;;;;;;;;;;5071577;28;20329;-76
2021/01/04 12:06:30;;;;;;;4.82;1.63;;;;;;;;;;5074456;28;20188;-76
2021/01/04 12:08:56;;;;;;;2.50;1.67;;;;;;;;;;5069699;28;20262;-73
2021/01/04 12:11:22;;;;;;;2.50;2.05;;;;;;;;;;5074333;28;20200;-73
2021/01/04 12:13:50;;;;;;;3.05;1.73;;;;;;;;;;5068661;28;20200;-74
2021/01/04 12:16:16;;;;;;;2.42;1.80;;;;;;;;;;5084268;28;20276;-75
2021/01/04 12:18:43;;;;;;;2.50;1.80;;;;;;;;;;5084964;28;20191;-73
2021/01/04 12:21:09;;;;;;;2.55;1.98;;;;;;;;;;5070665;28;20286;-73
2021/01/04 12:23:35;;;;;;;2.63;2.03;;;;;;;;;;5084107;28;20262;-74
2021/01/04 12:26:01;;;;;;;2.55;2.00;;;;;;;;;;5089493;28;20201;-72
2021/01/04 12:28:27;;;;;;;3.33;2.20;;;;;;;;;;5088055;28;20194;-73
2021/01/04 12:30:53;;;;;;;3.88;2.00;;;;;;;;;;5079056;28;20203;-75
2021/01/04 12:33:19;;;;;;;2.50;2.00;;;;;;;;;;5075133;28;20539;-75
2021/01/04 12:35:45;;;;;;;3.08;1.95;;;;;;;;;;5082803;28;20172;-74
2021/01/04 12:38:11;;;;;;;2.33;1.70;;;;;;;;;;5074454;28;20176;-75
2021/01/04 12:40:37;;;;;;;2.97;1.95;;;;;;;;;;5072783;28;20214;-76
2021/01/04 12:43:04;;;;;;;2.50;2.13;;;;;;;;;;5093388;28;20594;-76
2021/01/04 12:45:30;;;;;;;2.85;2.45;;;;;;;;;;5083303;28;20191;-74
2021/01/04 12:47:57;;;;;;;3.35;2.03;;;;;;;;;;5074587;28;20187;-72
2021/01/04 12:50:23;;;;;;;3.55;2.25;;;;;;;;;;5087740;28;20210;-74
2021/01/04 12:52:49;;;;;;;2.67;1.92;;;;;;;;;;5072842;28;20202;-75
2021/01/04 12:55:20;;;;;;;2.10;1.75;;;;;;;;;;5090939;28;20624;-74
2021/01/04 12:57:47;;;;;;;2.95;2.17;;;;;;;;;;5093146;28;20168;-74
2021/01/04 13:00:14;;;;;;;6.25;2.05;;;;;;;;;;5092894;28;20237;-75
2021/01/04 13:02:40;;;;;;;2.10;1.80;;;;;;;;;;5092727;28;20290;-74
2021/01/04 13:05:06;;;;;;;2.40;1.80;;;;;;;;;;5091044;28;20353;-75
2021/01/04 13:07:32;;;;;;;2.70;2.00;;;;;;;;;;5092253;28;20206;-76
2021/01/04 13:09:58;;;;;;;2.55;2.00;;;;;;;;;;5093552;28;20211;-73
2021/01/04 13:12:24;;;;;;;3.38;2.30;;;;;;;;;;5075150;28;20264;-76
2021/01/04 13:14:50;;;;;;;3.70;2.58;;;;;;;;;;5086309;28;20643;-74
2021/01/04 13:17:16;;;;;;;2.90;2.20;;;;;;;;;;5080265;28;20253;-73
2021/01/04 13:19:42;;;;;;;3.13;2.22;;;;;;;;;;5086858;28;20206;-76
2021/01/04 13:22:08;;;;;;;3.00;2.30;;;;;;;;;;5092541;28;20203;-77
2021/01/04 13:24:34;;;;;;;3.10;2.15;;;;;;;;;;5091583;28;20187;-74
2021/01/04 13:27:00;;;;;;;2.83;2.20;;;;;;;;;;5092285;28;20189;-73
2021/01/04 13:29:29;;;;;;;3.15;2.38;;;;;;;;;;5091297;28;20704;-74
2021/01/04 13:32:03;;;;;;;2.88;2.30;;;;;;;;;;5092081;28;20210;-72
2021/01/04 13:34:29;;;;;;;3.53;2.22;;;;;;;;;;5091521;28;20194;-75
2021/01/04 13:36:56;;;;;;;3.20;2.45;;;;;;;;;;5091883;28;20182;-75
2021/01/04 13:39:22;;;;;;;5.47;2.33;;;;;;;;;;5091121;28;20179;-75
2021/01/04 13:41:54;;;;;;;3.30;2.75;;;;;;;;;;5089201;28;20207;-75
2021/01/04 13:44:21;;;;;;;3.00;2.60;;;;;;;;;;5090681;28;20247;-74
2021/01/04 13:46:47;;;;;;;3.78;2.50;;;;;;;;;;5072105;28;20180;-72
2021/01/04 13:49:13;;;;;;;3.47;2.30;;;;;;;;;;5085858;28;20190;-76
2021/01/04 13:51:44;;;;;;;3.33;2.80;;;;;;;;;;5091405;28;20211;-73
2021/01/04 13:54:10;;;;;;;3.45;2.17;;;;;;;;;;5091791;28;20286;-75
2021/01/04 13:56:36;;;;;;;3.33;2.20;;;;;;;;;;5090058;28;20286;-75
2021/01/04 13:59:02;;;;;;;4.40;2.55;;;;;;;;;;5090173;28;20171;-75
2021/01/04 14:01:28;;;;;;;2.65;2.20;;;;;;;;;;5091775;28;20460;-74
2021/01/04 14:03:57;;;;;;;2.75;2.17;;;;;;;;;;5088653;28;20614;-74
2021/01/04 14:06:23;;;;;;;2.60;2.15;;;;;;;;;;5071587;28;20207;-76
2021/01/04 14:08:49;;;;;;;5.20;2.05;;;;;;;;;;5085425;28;20719;-74
2021/01/04 14:11:16;;;;;;;3.20;2.00;;;;;;;;;;5092121;28;20204;-74
2021/01/04 14:13:42;;;;;;;3.15;2.00;;;;;;;;;;5086038;28;20597;-73
2021/01/04 14:16:09;;;;;;;3.75;2.50;;;;;;;;;;5089760;28;20270;-77
2021/01/04 14:18:35;;;;;;;2.60;2.35;;;;;;;;;;5089825;28;20171;-75
2021/01/04 14:21:01;;;;;;;3.05;2.22;;;;;;;;;;5091287;28;20206;-75
2021/01/04 14:23:27;;;;;;;3.33;2.60;;;;;;;;;;5088154;28;20180;-75
2021/01/04 14:25:53;;;;;;;3.00;2.20;;;;;;;;;;5071095;28;20187;-76
2021/01/04 14:28:19;;;;;;;2.67;2.30;;;;;;;;;;5085013;28;20606;-73
2021/01/04 14:30:45;;;;;;;3.47;2.47;;;;;;;;;;5091146;28;20626;-73
2021/01/04 14:33:11;;;;;;;4.63;2.50;;;;;;;;;;5087773;28;20176;-73
2021/01/04 14:35:37;;;;;;;3.10;2.60;;;;;;;;;;5070776;28;20623;-73
2021/01/04 14:38:03;;;;;;;3.78;2.55;;;;;;;;;;5078645;28;20183;-73
2021/01/04 14:40:29;;;;;;;2.40;2.05;;;;;;;;;;5091006;28;20203;-75
2021/01/04 14:42:56;;;;;;;3.20;2.60;;;;;;;;;;5081965;28;20188;-74
2021/01/04 14:45:22;;;;;;;6.10;4.82;;;;;;;;;;5070124;28;20663;-75
2021/01/04 14:47:48;;;;;;;4.80;2.63;;;;;;;;;;5079566;28;20188;-74
2021/01/04 14:50:15;;;;;;;3.40;2.50;;;;;;;;;;5090786;28;20256;-75
2021/01/04 14:52:41;;;;;;;2.75;2.17;;;;;;;;;;5090725;28;20194;-74
2021/01/04 14:55:07;;;;;;;3.03;2.47;;;;;;;;;;5074857;28;20966;-74
2021/01/04 14:57:33;;;;;;;3.58;2.78;;;;;;;;;;5076764;28;20262;-75
2021/01/04 14:59:59;;;;;;;2.40;2.00;;;;;;;;;;5075043;28;20259;-75
2021/01/04 15:02:25;;;;;;;2.97;2.35;;;;;;;;;;5074982;28;20350;-73
2021/01/04 15:04:51;;;;;;;3.38;2.40;;;;;;;;;;5074704;28;20259;-75
2021/01/04 15:07:18;;;;;;;4.43;2.97;;;;;;;;;;5073250;28;20602;-76
2021/01/04 15:09:53;;;;;;;2.92;2.63;;;;;;;;;;5090363;28;20181;-76